< < Back
Terminal Aerodrome Forecast


Current Version              Previous Versions:   1  2  3  4  5  6  7  8  9  

Terminal Aerodrome Forecast

483
FTUS42 KCAE 221700
TAFCAE
TAF
KCAE 221723Z 2218/2318 03007KT P6SM VCSH SCT035 BKN070
      TEMPO 2219/2222 5SM -SHRA BKN035
     FM230600 04005KT P6SM BKN040=

Latest METAR

762
SAUS80 KWBC 222000 CCA
MTRCAE
METAR KCAE 221956Z 08005KT 10SM -RA FEW050 SCT090 BKN110 23/14 A3002 RMK
AO2 RAB33 SLP163 P0000 T02280139


USA.gov is the U.S. government's official web portal to all federal, state and local government web resources and services.